createdAt,value
2022-10-03T00:01:35.547Z,98868.91
2022-10-03T00:03:44.620Z,98858.94
2022-10-03T00:06:15.777Z,98856.53
2022-10-03T00:08:56.301Z,98858.81
2022-10-03T00:11:07.748Z,98855.16
2022-10-03T00:13:20.575Z,98863.00
2022-10-03T00:15:33.128Z,98859.75
2022-10-03T00:17:51.286Z,98863.94
2022-10-03T00:19:59.544Z,98858.06
2022-10-03T00:22:19.966Z,98860.81
2022-10-03T00:24:40.057Z,98859.59
2022-10-03T00:26:53.702Z,98844.88
2022-10-03T00:29:26.334Z,98842.47
2022-10-03T00:31:55.401Z,98856.13
2022-10-03T00:34:20.524Z,98857.59
2022-10-03T00:37:20.253Z,98859.91
2022-10-03T00:39:47.834Z,98864.09
2022-10-03T00:42:41.861Z,98868.03
2022-10-03T00:45:03.873Z,98863.22
2022-10-03T00:47:14.421Z,98871.44
2022-10-03T00:49:55.635Z,98865.81
2022-10-03T00:52:35.738Z,98863.03
2022-10-03T00:54:38.537Z,98869.28
2022-10-03T00:57:00.761Z,98867.44
2022-10-03T00:59:15.954Z,98875.25
2022-10-03T01:01:34.630Z,98878.03
2022-10-03T01:03:46.868Z,98880.06
2022-10-03T01:06:16.136Z,98878.47
2022-10-03T01:08:54.974Z,98879.25
2022-10-03T01:11:04.553Z,98881.22
2022-10-03T01:13:19.288Z,98884.00
2022-10-03T01:15:39.455Z,98880.69
2022-10-03T01:17:55.877Z,98881.06
2022-10-03T01:20:17.320Z,98883.38
2022-10-03T01:22:31.894Z,98884.09
2022-10-03T01:24:52.753Z,98886.88
2022-10-03T01:27:11.229Z,98870.31
2022-10-03T01:29:43.829Z,98872.88
2022-10-03T01:31:57.342Z,98884.72
2022-10-03T01:34:16.900Z,98885.97
2022-10-03T01:36:40.464Z,98880.44
2022-10-03T01:38:51.857Z,98884.44
2022-10-03T01:41:09.711Z,98889.97
2022-10-03T01:43:23.887Z,98884.09
2022-10-03T01:45:31.737Z,98881.34
2022-10-03T01:47:40.002Z,98885.25
2022-10-03T01:50:05.815Z,98886.31
2022-10-03T01:52:29.843Z,98886.31
2022-10-03T01:55:05.863Z,98884.72
2022-10-03T01:57:53.829Z,98891.31
2022-10-03T02:00:12.877Z,98898.25
2022-10-03T02:02:41.226Z,98899.03
2022-10-03T02:05:05.358Z,98900.09
2022-10-03T02:07:30.681Z,98892.47
2022-10-03T02:09:36.669Z,98893.72
2022-10-03T02:11:51.898Z,98896.38
2022-10-03T02:14:16.336Z,98893.97
2022-10-03T02:16:43.669Z,98891.81
2022-10-03T02:19:12.714Z,98893.56
2022-10-03T02:21:30.445Z,98894.28
2022-10-03T02:23:33.017Z,98904.50
2022-10-03T02:26:14.367Z,98902.81
2022-10-03T02:28:48.413Z,98902.38
2022-10-03T02:31:32.583Z,98908.78
2022-10-03T02:33:59.291Z,98913.50
2022-10-03T02:36:39.043Z,98907.72
2022-10-03T02:38:59.815Z,98912.97
2022-10-03T02:41:23.661Z,98916.97
2022-10-03T02:44:04.199Z,98911.13
2022-10-03T02:46:27.296Z,98919.84
2022-10-03T02:48:49.568Z,98918.72
2022-10-03T02:51:27.414Z,98919.50
2022-10-03T02:53:48.555Z,98921.53
2022-10-03T02:56:13.662Z,98921.19
2022-10-03T02:58:43.941Z,98928.22
2022-10-03T03:00:49.387Z,98931.44
2022-10-03T03:02:59.174Z,98921.19
2022-10-03T03:05:16.789Z,98922.44
2022-10-03T03:07:51.315Z,98925.94
2022-10-03T03:10:21.863Z,98927.78
2022-10-03T03:12:55.212Z,98928.56
2022-10-03T03:15:13.194Z,98939.50
2022-10-03T03:17:38.289Z,98941.09
2022-10-03T03:19:59.222Z,98945.75
2022-10-03T03:22:16.882Z,98950.44
2022-10-03T03:24:50.699Z,98948.03
2022-10-03T03:27:03.534Z,98946.44
2022-10-03T03:29:21.301Z,98950.34
2022-10-03T03:31:44.760Z,98954.63
2022-10-03T03:34:15.414Z,98951.84
2022-10-03T03:36:28.064Z,98948.66
2022-10-03T03:39:01.301Z,98958.88
2022-10-03T03:41:41.386Z,98958.44
2022-10-03T03:44:03.476Z,98962.31
2022-10-03T03:46:15.056Z,98969.47
2022-10-03T03:48:53.384Z,98974.97
2022-10-03T03:51:35.246Z,98979.34
2022-10-03T03:53:53.733Z,98990.03
2022-10-03T03:56:27.517Z,98978.19
2022-10-03T03:58:55.043Z,98980.59
2022-10-03T04:01:09.418Z,98986.56
2022-10-03T04:03:39.228Z,98992.63
2022-10-03T04:05:57.757Z,98993.78
2022-10-03T04:08:29.089Z,98990.75
2022-10-03T04:10:50.417Z,98997.31
2022-10-03T04:13:19.476Z,98984.22
2022-10-03T04:15:22.195Z,98994.31
2022-10-03T04:18:00.902Z,98994.81
2022-10-03T04:20:04.484Z,99000.47
2022-10-03T04:22:36.724Z,98998.50
2022-10-03T04:24:39.234Z,99000.91
2022-10-03T04:27:02.409Z,98993.78
2022-10-03T04:29:21.225Z,98997.78
2022-10-03T04:31:43.927Z,99002.69
2022-10-03T04:33:57.172Z,99000.03
2022-10-03T04:36:11.961Z,99009.28
2022-10-03T04:38:44.572Z,98994.69
2022-10-03T04:41:09.543Z,99002.44
2022-10-03T04:43:34.986Z,98997.72
2022-10-03T04:46:26.112Z,99004.84
2022-10-03T04:48:40.516Z,99004.84
2022-10-03T04:50:48.737Z,98990.22
2022-10-03T04:52:57.467Z,98996.19
2022-10-03T04:55:41.681Z,98999.84
2022-10-03T04:58:28.796Z,99009.72
2022-10-03T05:00:34.315Z,99006.09
2022-10-03T05:02:46.241Z,99005.19
2022-10-03T05:05:20.832Z,99007.97
2022-10-03T05:07:42.427Z,99009.03
2022-10-03T05:09:58.149Z,99015.00
2022-10-03T05:12:07.832Z,99020.19
2022-10-03T05:14:26.609Z,99019.00
2022-10-03T05:17:04.884Z,99020.19
2022-10-03T05:19:51.256Z,99026.84
2022-10-03T05:22:04.382Z,99036.97
2022-10-03T05:24:59.031Z,99032.63
2022-10-03T05:27:38.469Z,99028.06
2022-10-03T05:29:52.456Z,99025.22
2022-10-03T05:32:01.037Z,99033.59
2022-10-03T05:34:13.613Z,99037.69
2022-10-03T05:36:47.589Z,99033.88
2022-10-03T05:39:25.591Z,99038.41
2022-10-03T05:41:38.040Z,99038.25
2022-10-03T05:43:58.939Z,99049.56
2022-10-03T05:46:22.551Z,99045.47
2022-10-03T05:48:54.268Z,99051.00
2022-10-03T05:51:15.471Z,99048.84
2022-10-03T05:53:39.585Z,99052.75
2022-10-03T05:56:35.577Z,99053.81
2022-10-03T05:58:54.439Z,99058.50
2022-10-03T06:01:30.812Z,99060.28
2022-10-03T06:04:06.063Z,99061.66
2022-10-03T06:06:33.762Z,99053.06
2022-10-03T06:08:51.673Z,99065.19
2022-10-03T06:11:00.130Z,99063.44
2022-10-03T06:13:14.722Z,99069.25
2022-10-03T06:15:39.540Z,99069.47
2022-10-03T06:18:00.767Z,99069.53
2022-10-03T06:20:42.397Z,99083.88
2022-10-03T06:23:04.916Z,99076.94
2022-10-03T06:25:26.705Z,99081.09
2022-10-03T06:27:59.931Z,99081.53
2022-10-03T06:30:40.281Z,99086.28
2022-10-03T06:32:58.352Z,99092.25
2022-10-03T06:35:25.540Z,99087.97
2022-10-03T06:38:07.877Z,99088.03
2022-10-03T06:40:32.707Z,99091.53
2022-10-03T06:42:35.284Z,99097.94
2022-10-03T06:45:15.507Z,99097.28
2022-10-03T06:47:59.890Z,99096.59
2022-10-03T06:50:19.750Z,99101.53
2022-10-03T06:52:54.040Z,99101.78
2022-10-03T06:55:25.699Z,99098.00
2022-10-03T06:57:31.380Z,99113.16
2022-10-03T06:59:37.076Z,99106.50
2022-10-03T07:02:21.816Z,99115.72
2022-10-03T07:04:36.333Z,99106.19
2022-10-03T07:06:48.922Z,99119.63
2022-10-03T07:09:21.998Z,99110.94
2022-10-03T07:11:40.619Z,99116.59
2022-10-03T07:13:56.740Z,99117.16
2022-10-03T07:16:26.536Z,99122.06
2022-10-03T07:19:08.096Z,99113.81
2022-10-03T07:21:36.239Z,99116.97
2022-10-03T07:24:03.220Z,99116.75
2022-10-03T07:26:36.815Z,99122.25
2022-10-03T07:28:48.705Z,99119.53
2022-10-03T07:31:19.286Z,99123.41
2022-10-03T07:33:39.418Z,99122.59
2022-10-03T07:36:29.183Z,99121.97
2022-10-03T07:38:59.925Z,99124.56
2022-10-03T07:41:34.185Z,99121.81
2022-10-03T07:43:56.318Z,99119.88
2022-10-03T07:46:20.337Z,99122.63
2022-10-03T07:48:25.931Z,99119.06
2022-10-03T07:51:01.676Z,99125.06
2022-10-03T07:53:42.405Z,99125.13
2022-10-03T07:55:51.166Z,99128.75
2022-10-03T07:58:27.317Z,99126.06
2022-10-03T08:01:06.635Z,99132.38
2022-10-03T08:03:44.852Z,99124.69
2022-10-03T08:06:02.590Z,99129.34
2022-10-03T08:08:42.656Z,99142.38
2022-10-03T08:11:08.824Z,99141.34
2022-10-03T08:13:31.237Z,99139.16
2022-10-03T08:16:12.162Z,99153.59
2022-10-03T08:18:52.188Z,99145.38
2022-10-03T08:21:19.959Z,99148.59
2022-10-03T08:24:02.029Z,99138.28
2022-10-03T08:26:26.463Z,99139.53
2022-10-03T08:28:54.399Z,99149.59
2022-10-03T08:31:15.299Z,99160.00
2022-10-03T08:33:48.975Z,99152.50
2022-10-03T08:36:14.200Z,99165.50
2022-10-03T08:38:37.924Z,99169.38
2022-10-03T08:41:00.878Z,99162.28
2022-10-03T08:43:41.304Z,99147.25
2022-10-03T08:45:59.671Z,99157.59
2022-10-03T08:48:33.435Z,99148.88
2022-10-03T08:51:23.210Z,99147.63
2022-10-03T08:53:52.309Z,99155.63
2022-10-03T08:56:10.209Z,99160.50
2022-10-03T08:58:37.278Z,99151.78
2022-10-03T09:01:15.450Z,99157.00
2022-10-03T09:03:36.774Z,99154.63
2022-10-03T09:06:14.204Z,99167.38
2022-10-03T09:08:41.970Z,99165.41
2022-10-03T09:10:56.853Z,99156.28
2022-10-03T09:13:36.647Z,99163.03
2022-10-03T09:16:04.153Z,99173.38
2022-10-03T09:18:28.133Z,99149.91
2022-10-03T09:21:09.264Z,99160.72
2022-10-03T09:23:18.177Z,99156.81
2022-10-03T09:25:56.331Z,99156.44
2022-10-03T09:28:41.360Z,99161.72
2022-10-03T09:31:04.293Z,99167.75
2022-10-03T09:33:29.295Z,99180.16
2022-10-03T09:35:37.911Z,99162.66
2022-10-03T09:38:19.505Z,99165.50
2022-10-03T09:40:43.289Z,99180.25
2022-10-03T09:43:13.026Z,99172.59
2022-10-03T09:45:18.351Z,99171.00
2022-10-03T09:47:51.693Z,99158.69
2022-10-03T09:50:22.180Z,99162.66
2022-10-03T09:52:57.048Z,99164.72
2022-10-03T09:55:39.516Z,99158.34
2022-10-03T09:58:13.188Z,99178.56
2022-10-03T10:00:23.357Z,99165.81
2022-10-03T10:02:40.281Z,99154.69
2022-10-03T10:05:02.001Z,99163.81
2022-10-03T10:07:28.223Z,99163.50
2022-10-03T10:09:36.642Z,99166.31
2022-10-03T10:12:00.580Z,99167.56
2022-10-03T10:14:31.075Z,99165.53
2022-10-03T10:16:58.519Z,99176.22
2022-10-03T10:19:06.907Z,99169.06
2022-10-03T10:21:36.062Z,99167.06
2022-10-03T10:24:20.290Z,99170.25
2022-10-03T10:26:49.407Z,99180.59
2022-10-03T10:29:10.414Z,99187.81
2022-10-03T10:31:31.740Z,99183.47
2022-10-03T10:33:59.206Z,99182.69
2022-10-03T10:36:49.119Z,99180.34
2022-10-03T10:39:12.679Z,99178.78
2022-10-03T10:41:52.526Z,99184.38
2022-10-03T10:44:37.930Z,99176.03
2022-10-03T10:47:14.391Z,99178.03
2022-10-03T10:49:38.835Z,99175.28
2022-10-03T10:51:53.602Z,99172.53
2022-10-03T10:54:15.212Z,99171.38
2022-10-03T10:56:39.508Z,99192.09
2022-10-03T10:59:05.072Z,99186.50
2022-10-03T11:01:29.313Z,99166.63
2022-10-03T11:04:02.803Z,99178.63
2022-10-03T11:06:14.729Z,99195.75
2022-10-03T11:08:45.366Z,99186.56
2022-10-03T11:11:14.026Z,99179.38
2022-10-03T11:13:35.744Z,99177.44
2022-10-03T11:16:01.027Z,99188.59
2022-10-03T11:18:19.162Z,99188.63
2022-10-03T11:20:57.923Z,99185.81
2022-10-03T11:23:37.861Z,99188.19
2022-10-03T11:26:11.464Z,99193.75
2022-10-03T11:28:19.060Z,99198.16
2022-10-03T11:30:56.891Z,99190.63
2022-10-03T11:33:30.419Z,99201.78
2022-10-03T11:35:58.926Z,99200.59
2022-10-03T11:38:19.617Z,99187.03
2022-10-03T11:40:25.076Z,99187.81
2022-10-03T11:42:52.529Z,99186.16
2022-10-03T11:45:04.368Z,99188.88
2022-10-03T11:47:22.327Z,99200.03
2022-10-03T11:49:50.191Z,99196.47
2022-10-03T11:52:11.175Z,99206.06
2022-10-03T11:54:32.396Z,99207.28
2022-10-03T11:56:36.474Z,99210.13
2022-10-03T11:58:47.344Z,99206.94
2022-10-03T12:01:08.413Z,99222.47
2022-10-03T12:03:18.200Z,99196.56
2022-10-03T12:05:37.299Z,99222.50
2022-10-03T12:08:33.133Z,99223.31
2022-10-03T12:11:24.616Z,99224.09
2022-10-03T12:13:59.834Z,99220.88
2022-10-03T12:16:11.131Z,99215.28
2022-10-03T12:18:28.435Z,99208.91
2022-10-03T12:20:46.027Z,99222.50
2022-10-03T12:22:53.410Z,99214.06
2022-10-03T12:25:07.537Z,99205.16
2022-10-03T12:27:31.334Z,99217.06
2022-10-03T12:29:39.408Z,99209.53
2022-10-03T12:32:12.841Z,99220.31
2022-10-03T12:34:25.904Z,99216.31
2022-10-03T12:36:48.525Z,99211.94
2022-10-03T12:39:14.923Z,99218.66
2022-10-03T12:41:51.562Z,99205.88
2022-10-03T12:44:19.658Z,99207.00
2022-10-03T12:46:31.805Z,99206.56
2022-10-03T12:48:59.378Z,99204.47
2022-10-03T12:51:17.395Z,99205.25
2022-10-03T12:53:20.100Z,99204.44
2022-10-03T12:55:35.411Z,99202.38
2022-10-03T12:58:02.568Z,99209.53
2022-10-03T13:00:08.172Z,99202.69
2022-10-03T13:02:26.365Z,99202.25
2022-10-03T13:04:53.773Z,99197.13
2022-10-03T13:07:04.384Z,99203.47
2022-10-03T13:09:18.562Z,99198.06
2022-10-03T13:11:33.367Z,99189.91
2022-10-03T13:13:45.644Z,99185.81
2022-10-03T13:16:04.655Z,99179.47
2022-10-03T13:18:30.731Z,99191.38
2022-10-03T13:20:39.592Z,99194.97
2022-10-03T13:23:03.782Z,99186.09
2022-10-03T13:25:23.580Z,99185.94
2022-10-03T13:28:02.299Z,99193.22
2022-10-03T13:30:20.479Z,99195.78
2022-10-03T13:32:23.173Z,99204.78
2022-10-03T13:34:32.521Z,99203.47
2022-10-03T13:37:01.143Z,99199.81
2022-10-03T13:39:18.571Z,99197.16
2022-10-03T13:41:52.851Z,99198.94
2022-10-03T13:44:11.086Z,99206.84
2022-10-03T13:46:20.259Z,99209.00
2022-10-03T13:48:27.873Z,99199.13
2022-10-03T13:50:40.688Z,99218.44
2022-10-03T13:52:56.206Z,99232.47
2022-10-03T13:55:18.983Z,99228.25
2022-10-03T13:57:29.325Z,99231.31
2022-10-03T13:59:48.926Z,99238.38
2022-10-03T14:02:35.598Z,99233.06
2022-10-03T14:05:01.434Z,99245.25
2022-10-03T14:07:29.909Z,99240.38
2022-10-03T14:09:54.588Z,99251.75
2022-10-03T14:12:28.156Z,99255.28
2022-10-03T14:15:06.308Z,99252.78
2022-10-03T14:17:24.933Z,99259.16
2022-10-03T14:19:45.787Z,99268.59
2022-10-03T14:22:13.216Z,99266.88
2022-10-03T14:25:00.948Z,99275.03
2022-10-03T14:27:10.000Z,99272.19
2022-10-03T14:29:21.753Z,99265.50
2022-10-03T14:31:36.500Z,99267.38
2022-10-03T14:33:47.407Z,99278.00
2022-10-03T14:36:22.397Z,99275.53
2022-10-03T14:38:58.163Z,99278.94
2022-10-03T14:41:09.546Z,99289.06
2022-10-03T14:43:21.254Z,99292.16
2022-10-03T14:45:27.916Z,99305.56
2022-10-03T14:47:38.083Z,99300.03
2022-10-03T14:49:57.547Z,99303.09
2022-10-03T14:52:19.022Z,99306.22
2022-10-03T14:54:25.046Z,99303.81
2022-10-03T14:56:27.909Z,99313.00
2022-10-03T14:58:45.317Z,99316.88
2022-10-03T15:00:55.546Z,99333.09
2022-10-03T15:02:58.312Z,99317.94
2022-10-03T15:05:35.813Z,99321.50
2022-10-03T15:07:41.548Z,99327.75
2022-10-03T15:09:50.468Z,99334.91
2022-10-03T15:12:07.552Z,99332.13
2022-10-03T15:14:10.926Z,99344.00
2022-10-03T15:16:20.859Z,99345.88
2022-10-03T15:18:24.951Z,99347.34
2022-10-03T15:20:35.045Z,99353.03
2022-10-03T15:22:42.241Z,99350.63
2022-10-03T15:24:46.695Z,99352.94
2022-10-03T15:26:59.310Z,99352.44
2022-10-03T15:29:06.516Z,99366.63
2022-10-03T15:31:15.635Z,99366.25
2022-10-03T15:33:36.204Z,99365.63
2022-10-03T15:35:43.408Z,99369.81
2022-10-03T15:37:47.937Z,99367.78
2022-10-03T15:39:53.706Z,99366.41
2022-10-03T15:42:01.599Z,99361.34
2022-10-03T15:44:15.337Z,99371.28
2022-10-03T15:46:57.047Z,99365.56
2022-10-03T15:49:18.097Z,99373.28
2022-10-03T15:51:26.999Z,99362.84
2022-10-03T15:53:36.898Z,99369.72
2022-10-03T15:56:08.817Z,99373.56
2022-10-03T15:58:33.924Z,99372.75
2022-10-03T16:00:38.071Z,99373.81
2022-10-03T16:02:53.844Z,99376.47
2022-10-03T16:04:58.335Z,99378.81
2022-10-03T16:07:07.952Z,99372.13
2022-10-03T16:09:37.280Z,99379.63
2022-10-03T16:12:05.912Z,99376.28
2022-10-03T16:14:23.179Z,99377.47
2022-10-03T16:16:33.954Z,99381.81
2022-10-03T16:19:10.564Z,99386.09
2022-10-03T16:21:23.213Z,99386.38
2022-10-03T16:23:30.906Z,99393.94
2022-10-03T16:25:53.213Z,99400.53
2022-10-03T16:28:02.396Z,99391.81
2022-10-03T16:30:10.755Z,99397.69
2022-10-03T16:32:21.920Z,99392.50
2022-10-03T16:34:26.663Z,99391.63
2022-10-03T16:36:32.774Z,99392.50
2022-10-03T16:38:46.591Z,99398.75
2022-10-03T16:40:56.074Z,99395.06
2022-10-03T16:43:06.164Z,99388.19
2022-10-03T16:45:25.419Z,99393.56
2022-10-03T16:48:07.913Z,99395.78
2022-10-03T16:50:25.230Z,99400.41
2022-10-03T16:52:35.070Z,99399.69
2022-10-03T16:54:40.177Z,99400.06
2022-10-03T16:56:49.195Z,99402.91
2022-10-03T16:59:06.754Z,99398.09
2022-10-03T17:01:32.341Z,99401.91
2022-10-03T17:03:46.308Z,99412.25
2022-10-03T17:05:53.842Z,99404.69
2022-10-03T17:08:23.638Z,99407.09
2022-10-03T17:10:41.443Z,99403.16
2022-10-03T17:12:52.573Z,99409.97
2022-10-03T17:14:58.291Z,99409.97
2022-10-03T17:17:07.460Z,99412.00
2022-10-03T17:19:36.994Z,99413.78
2022-10-03T17:21:45.093Z,99422.53
2022-10-03T17:24:13.213Z,99416.53
2022-10-03T17:26:21.339Z,99427.13
2022-10-03T17:28:40.272Z,99421.84
2022-10-03T17:30:51.880Z,99424.16
2022-10-03T17:33:22.405Z,99425.91
2022-10-03T17:35:48.852Z,99427.03
2022-10-03T17:38:49.535Z,99431.53
2022-10-03T17:41:01.705Z,99433.03
2022-10-03T17:43:22.192Z,99434.53
2022-10-03T17:45:30.788Z,99438.81
2022-10-03T17:47:59.630Z,99450.44
2022-10-03T17:50:23.736Z,99444.44
2022-10-03T17:52:28.410Z,99447.56
2022-10-03T17:54:39.221Z,99441.94
2022-10-03T17:56:49.037Z,99446.28
2022-10-03T17:59:19.397Z,99448.13
2022-10-03T18:01:34.406Z,99457.91
2022-10-03T18:03:44.595Z,99456.19
2022-10-03T18:05:52.679Z,99451.38
2022-10-03T18:07:57.838Z,99452.97
2022-10-03T18:10:01.030Z,99451.25
2022-10-03T18:12:31.270Z,99464.50
2022-10-03T18:14:41.132Z,99458.88
2022-10-03T18:17:17.415Z,99460.38
2022-10-03T18:19:26.230Z,99473.47
2022-10-03T18:21:54.686Z,99468.75
2022-10-03T18:24:21.772Z,99473.00
2022-10-03T18:26:42.676Z,99474.84
2022-10-03T18:29:11.343Z,99471.16
2022-10-03T18:31:22.509Z,99476.69
2022-10-03T18:33:40.338Z,99477.50
2022-10-03T18:35:46.072Z,99482.22
2022-10-03T18:37:52.487Z,99488.78
2022-10-03T18:39:57.875Z,99485.22
2022-10-03T18:42:02.480Z,99484.06
2022-10-03T18:44:05.569Z,99487.97
2022-10-03T18:46:30.096Z,99481.31
2022-10-03T18:48:41.914Z,99483.84
2022-10-03T18:50:50.143Z,99485.44
2022-10-03T18:52:54.410Z,99482.91
2022-10-03T18:55:15.459Z,99486.13
2022-10-03T18:57:30.492Z,99484.06
2022-10-03T18:59:45.821Z,99475.78
2022-10-03T19:01:55.869Z,99478.19
2022-10-03T19:04:07.978Z,99494.06
2022-10-03T19:06:28.634Z,99481.97
2022-10-03T19:09:06.791Z,99490.03
2022-10-03T19:11:39.827Z,99495.69
2022-10-03T19:13:46.410Z,99503.28
2022-10-03T19:16:22.337Z,99502.47
2022-10-03T19:18:53.744Z,99504.91
2022-10-03T19:21:04.787Z,99510.06
2022-10-03T19:23:14.292Z,99509.41
2022-10-03T19:25:21.647Z,99514.91
2022-10-03T19:27:48.351Z,99512.94
2022-10-03T19:29:55.021Z,99519.75
2022-10-03T19:32:04.621Z,99523.63
2022-10-03T19:34:33.282Z,99528.13
2022-10-03T19:36:39.712Z,99519.03
2022-10-03T19:38:48.613Z,99532.84
2022-10-03T19:41:14.457Z,99530.09
2022-10-03T19:43:26.048Z,99525.38
2022-10-03T19:45:29.098Z,99534.59
2022-10-03T19:47:37.213Z,99523.19
2022-10-03T19:49:45.842Z,99531.59
2022-10-03T19:51:49.909Z,99526.06
2022-10-03T19:53:55.058Z,99534.81
2022-10-03T19:55:57.996Z,99530.31
2022-10-03T19:58:11.540Z,99536.22
2022-10-03T20:00:20.034Z,99538.16
2022-10-03T20:02:25.181Z,99539.44
2022-10-03T20:04:50.998Z,99530.22
2022-10-03T20:06:55.575Z,99540.56
2022-10-03T20:09:05.438Z,99544.59
2022-10-03T20:11:35.324Z,99546.44
2022-10-03T20:13:46.415Z,99553.94
2022-10-03T20:15:52.072Z,99557.25
2022-10-03T20:18:02.168Z,99558.41
2022-10-03T20:20:10.023Z,99558.41
2022-10-03T20:22:14.905Z,99554.72
2022-10-03T20:24:44.948Z,99555.09
2022-10-03T20:27:00.810Z,99566.13
2022-10-03T20:29:09.461Z,99559.53
2022-10-03T20:31:22.506Z,99564.25
2022-10-03T20:33:30.266Z,99555.03
2022-10-03T20:35:49.861Z,99561.72
2022-10-03T20:37:59.897Z,99560.00
2022-10-03T20:40:10.046Z,99568.13
2022-10-03T20:42:26.386Z,99567.69
2022-10-03T20:45:23.304Z,99578.13
2022-10-03T20:48:10.771Z,99576.06
2022-10-03T20:50:32.744Z,99585.34
2022-10-03T20:52:35.225Z,99593.63
2022-10-03T20:54:51.969Z,99592.38
2022-10-03T20:57:14.630Z,99575.44
2022-10-03T20:59:17.987Z,99573.03
2022-10-03T21:01:29.078Z,99575.81
2022-10-03T21:03:50.011Z,99586.97
2022-10-03T21:05:55.716Z,99582.25
2022-10-03T21:08:04.859Z,99575.00
2022-10-03T21:10:21.276Z,99590.72
2022-10-03T21:12:30.885Z,99585.56
2022-10-03T21:14:35.403Z,99587.38
2022-10-03T21:16:49.684Z,99597.97
2022-10-03T21:18:58.005Z,99587.25
2022-10-03T21:21:16.405Z,99599.44
2022-10-03T21:23:26.384Z,99592.66
2022-10-03T21:25:35.497Z,99589.75
2022-10-03T21:27:52.219Z,99587.00
2022-10-03T21:30:13.230Z,99596.09
2022-10-03T21:32:31.906Z,99605.84
2022-10-03T21:34:46.572Z,99608.94
2022-10-03T21:37:19.070Z,99601.66
2022-10-03T21:39:35.879Z,99598.91
2022-10-03T21:41:58.247Z,99609.47
2022-10-03T21:44:37.872Z,99613.03
2022-10-03T21:46:43.705Z,99614.97
2022-10-03T21:49:04.346Z,99618.06
2022-10-03T21:51:26.787Z,99624.25
2022-10-03T21:53:46.530Z,99626.91
2022-10-03T21:55:53.241Z,99623.31
2022-10-03T21:58:16.393Z,99630.09
2022-10-03T22:00:40.356Z,99624.59
2022-10-03T22:03:04.285Z,99626.53
2022-10-03T22:05:30.381Z,99631.47
2022-10-03T22:07:35.777Z,99640.88
2022-10-03T22:09:47.010Z,99630.19
2022-10-03T22:12:06.961Z,99639.94
2022-10-03T22:14:43.343Z,99636.34
2022-10-03T22:16:57.792Z,99630.25
2022-10-03T22:19:24.841Z,99638.03
2022-10-03T22:21:37.851Z,99640.53
2022-10-03T22:23:53.363Z,99639.91
2022-10-03T22:26:37.789Z,99648.03
2022-10-03T22:29:22.859Z,99645.69
2022-10-03T22:31:49.299Z,99636.44
2022-10-03T22:34:06.804Z,99639.72
2022-10-03T22:36:12.577Z,99637.97
2022-10-03T22:38:17.617Z,99634.41
2022-10-03T22:40:21.316Z,99631.84
2022-10-03T22:42:25.148Z,99630.56
2022-10-03T22:44:32.589Z,99633.50
2022-10-03T22:46:36.635Z,99644.03
2022-10-03T22:48:50.462Z,99632.72
2022-10-03T22:50:54.946Z,99637.28
2022-10-03T22:53:00.089Z,99636.13
2022-10-03T22:55:06.685Z,99635.69
2022-10-03T22:57:14.106Z,99632.44
2022-10-03T22:59:29.739Z,99637.94
2022-10-03T23:01:35.360Z,99636.47
2022-10-03T23:03:38.317Z,99636.00
2022-10-03T23:06:30.275Z,99632.28
2022-10-03T23:09:01.147Z,99628.41
2022-10-03T23:11:17.034Z,99636.19
2022-10-03T23:13:38.640Z,99635.22
2022-10-03T23:15:44.799Z,99634.44
2022-10-03T23:18:25.710Z,99628.44
2022-10-03T23:21:01.900Z,99618.75
2022-10-03T23:23:16.716Z,99620.38
2022-10-03T23:25:28.460Z,99625.88
2022-10-03T23:27:33.721Z,99627.16
2022-10-03T23:29:36.537Z,99616.31
2022-10-03T23:32:00.384Z,99612.91
2022-10-03T23:34:03.158Z,99619.22
2022-10-03T23:36:20.302Z,99616.63
2022-10-03T23:38:32.211Z,99612.72
2022-10-03T23:40:45.661Z,99621.81
2022-10-03T23:42:59.971Z,99625.38
2022-10-03T23:45:11.249Z,99628.31
2022-10-03T23:47:16.653Z,99629.59
2022-10-03T23:49:20.578Z,99628.13
2022-10-03T23:51:30.392Z,99618.22
2022-10-03T23:53:39.101Z,99617.91
2022-10-03T23:55:44.292Z,99627.63
2022-10-03T23:57:47.639Z,99628.13
2022-10-03T23:59:50.812Z,99624.22
